sensor_id;sensor_type;location;lat;lon;timestamp;P1;durP1;ratioP1;P2;durP2;ratioP2
16998;SDS011;10211;49.476;11.010;2023-08-24T00:00:47;6.43;;;3.67;;
16998;SDS011;10211;49.476;11.010;2023-08-24T00:03:18;7.93;;;4.30;;
16998;SDS011;10211;49.476;11.010;2023-08-24T00:05:47;5.93;;;4.03;;
16998;SDS011;10211;49.476;11.010;2023-08-24T00:08:15;8.73;;;4.03;;
16998;SDS011;10211;49.476;11.010;2023-08-24T00:10:43;4.87;;;3.97;;
16998;SDS011;10211;49.476;11.010;2023-08-24T00:13:11;6.07;;;4.03;;
16998;SDS011;10211;49.476;11.010;2023-08-24T00:15:38;5.07;;;3.93;;
16998;SDS011;10211;49.476;11.010;2023-08-24T00:18:05;6.43;;;4.30;;
16998;SDS011;10211;49.476;11.010;2023-08-24T00:20:32;9.77;;;4.37;;
16998;SDS011;10211;49.476;11.010;2023-08-24T00:23:00;4.07;;;3.67;;
16998;SDS011;10211;49.476;11.010;2023-08-24T00:25:28;4.53;;;4.07;;
16998;SDS011;10211;49.476;11.010;2023-08-24T00:27:55;6.00;;;4.07;;
16998;SDS011;10211;49.476;11.010;2023-08-24T00:30:23;4.03;;;3.73;;
16998;SDS011;10211;49.476;11.010;2023-08-24T00:32:49;6.50;;;3.90;;
16998;SDS011;10211;49.476;11.010;2023-08-24T00:35:16;4.33;;;3.63;;
16998;SDS011;10211;49.476;11.010;2023-08-24T00:37:43;6.00;;;4.80;;
16998;SDS011;10211;49.476;11.010;2023-08-24T00:40:10;10.17;;;4.30;;
16998;SDS011;10211;49.476;11.010;2023-08-24T00:42:38;3.93;;;3.63;;
16998;SDS011;10211;49.476;11.010;2023-08-24T00:45:06;6.70;;;3.70;;
16998;SDS011;10211;49.476;11.010;2023-08-24T00:47:34;4.17;;;3.77;;
16998;SDS011;10211;49.476;11.010;2023-08-24T00:50:02;6.63;;;4.20;;
16998;SDS011;10211;49.476;11.010;2023-08-24T00:52:30;7.70;;;4.60;;
16998;SDS011;10211;49.476;11.010;2023-08-24T00:54:57;4.73;;;4.17;;
16998;SDS011;10211;49.476;11.010;2023-08-24T00:57:25;5.73;;;3.90;;
16998;SDS011;10211;49.476;11.010;2023-08-24T00:59:53;6.87;;;3.50;;
16998;SDS011;10211;49.476;11.010;2023-08-24T01:02:20;4.50;;;4.10;;
16998;SDS011;10211;49.476;11.010;2023-08-24T01:04:47;4.00;;;3.23;;
16998;SDS011;10211;49.476;11.010;2023-08-24T01:07:14;8.67;;;3.90;;
16998;SDS011;10211;49.476;11.010;2023-08-24T01:09:42;6.30;;;3.93;;
16998;SDS011;10211;49.476;11.010;2023-08-24T01:12:12;6.40;;;3.97;;
16998;SDS011;10211;49.476;11.010;2023-08-24T01:14:47;7.57;;;4.17;;
16998;SDS011;10211;49.476;11.010;2023-08-24T01:17:21;4.40;;;4.00;;
16998;SDS011;10211;49.476;11.010;2023-08-24T01:19:52;4.13;;;3.73;;
16998;SDS011;10211;49.476;11.010;2023-08-24T01:22:23;8.70;;;4.23;;
16998;SDS011;10211;49.476;11.010;2023-08-24T01:25:00;7.67;;;4.37;;
16998;SDS011;10211;49.476;11.010;2023-08-24T01:27:33;8.20;;;3.80;;
16998;SDS011;10211;49.476;11.010;2023-08-24T01:30:02;4.50;;;3.90;;
16998;SDS011;10211;49.476;11.010;2023-08-24T01:32:29;7.70;;;4.20;;
16998;SDS011;10211;49.476;11.010;2023-08-24T01:34:56;4.50;;;3.70;;
16998;SDS011;10211;49.476;11.010;2023-08-24T01:37:23;6.03;;;4.10;;
16998;SDS011;10211;49.476;11.010;2023-08-24T01:39:50;4.60;;;4.20;;
16998;SDS011;10211;49.476;11.010;2023-08-24T01:42:25;6.07;;;4.10;;
16998;SDS011;10211;49.476;11.010;2023-08-24T01:44:56;10.00;;;4.43;;
16998;SDS011;10211;49.476;11.010;2023-08-24T01:47:25;5.97;;;4.50;;
16998;SDS011;10211;49.476;11.010;2023-08-24T01:49:54;4.63;;;3.87;;
16998;SDS011;10211;49.476;11.010;2023-08-24T01:52:21;4.73;;;4.30;;
16998;SDS011;10211;49.476;11.010;2023-08-24T01:54:50;4.23;;;3.83;;
16998;SDS011;10211;49.476;11.010;2023-08-24T01:57:16;6.13;;;4.43;;
16998;SDS011;10211;49.476;11.010;2023-08-24T01:59:43;4.70;;;4.10;;
16998;SDS011;10211;49.476;11.010;2023-08-24T02:02:11;6.43;;;4.53;;
16998;SDS011;10211;49.476;11.010;2023-08-24T02:04:38;5.10;;;4.70;;
16998;SDS011;10211;49.476;11.010;2023-08-24T02:07:05;9.07;;;4.77;;
16998;SDS011;10211;49.476;11.010;2023-08-24T02:09:31;8.43;;;4.93;;
16998;SDS011;10211;49.476;11.010;2023-08-24T02:11:58;7.70;;;4.83;;
16998;SDS011;10211;49.476;11.010;2023-08-24T02:14:25;5.13;;;4.33;;
16998;SDS011;10211;49.476;11.010;2023-08-24T02:16:52;5.97;;;4.53;;
16998;SDS011;10211;49.476;11.010;2023-08-24T02:19:20;6.87;;;5.03;;
16998;SDS011;10211;49.476;11.010;2023-08-24T02:21:47;5.80;;;5.20;;
16998;SDS011;10211;49.476;11.010;2023-08-24T02:24:13;5.40;;;4.50;;
16998;SDS011;10211;49.476;11.010;2023-08-24T02:26:40;7.23;;;4.90;;
16998;SDS011;10211;49.476;11.010;2023-08-24T02:29:07;7.23;;;4.87;;
16998;SDS011;10211;49.476;11.010;2023-08-24T02:31:34;6.50;;;5.43;;
16998;SDS011;10211;49.476;11.010;2023-08-24T02:34:01;6.87;;;6.17;;
16998;SDS011;10211;49.476;11.010;2023-08-24T02:36:29;7.60;;;4.63;;
16998;SDS011;10211;49.476;11.010;2023-08-24T02:38:58;7.97;;;4.77;;
16998;SDS011;10211;49.476;11.010;2023-08-24T02:41:24;8.03;;;5.50;;
16998;SDS011;10211;49.476;11.010;2023-08-24T02:43:52;7.63;;;5.23;;
16998;SDS011;10211;49.476;11.010;2023-08-24T02:46:20;6.70;;;5.30;;
16998;SDS011;10211;49.476;11.010;2023-08-24T02:48:47;7.00;;;4.73;;
16998;SDS011;10211;49.476;11.010;2023-08-24T02:51:13;9.43;;;4.77;;
16998;SDS011;10211;49.476;11.010;2023-08-24T02:53:41;4.83;;;4.43;;
16998;SDS011;10211;49.476;11.010;2023-08-24T02:56:08;6.07;;;4.87;;
16998;SDS011;10211;49.476;11.010;2023-08-24T02:58:35;4.77;;;4.37;;
16998;SDS011;10211;49.476;11.010;2023-08-24T03:01:03;5.23;;;4.73;;
16998;SDS011;10211;49.476;11.010;2023-08-24T03:03:31;4.87;;;4.30;;
16998;SDS011;10211;49.476;11.010;2023-08-24T03:05:59;5.30;;;4.40;;
16998;SDS011;10211;49.476;11.010;2023-08-24T03:08:28;3.90;;;3.60;;
16998;SDS011;10211;49.476;11.010;2023-08-24T03:10:58;5.23;;;4.20;;
16998;SDS011;10211;49.476;11.010;2023-08-24T03:13:25;5.90;;;4.80;;
16998;SDS011;10211;49.476;11.010;2023-08-24T03:15:53;5.60;;;4.17;;
16998;SDS011;10211;49.476;11.010;2023-08-24T03:18:19;12.70;;;4.57;;
16998;SDS011;10211;49.476;11.010;2023-08-24T03:20:47;4.70;;;3.80;;
16998;SDS011;10211;49.476;11.010;2023-08-24T03:23:14;5.60;;;4.17;;
16998;SDS011;10211;49.476;11.010;2023-08-24T03:25:41;6.03;;;4.63;;
16998;SDS011;10211;49.476;11.010;2023-08-24T03:28:10;7.57;;;4.23;;
16998;SDS011;10211;49.476;11.010;2023-08-24T03:30:37;6.27;;;4.40;;
16998;SDS011;10211;49.476;11.010;2023-08-24T03:33:06;4.30;;;3.73;;
16998;SDS011;10211;49.476;11.010;2023-08-24T03:35:33;5.20;;;3.93;;
16998;SDS011;10211;49.476;11.010;2023-08-24T03:38:00;5.63;;;4.97;;
16998;SDS011;10211;49.476;11.010;2023-08-24T03:40:26;6.80;;;4.57;;
16998;SDS011;10211;49.476;11.010;2023-08-24T03:42:53;6.03;;;4.70;;
16998;SDS011;10211;49.476;11.010;2023-08-24T03:45:22;7.03;;;4.47;;
16998;SDS011;10211;49.476;11.010;2023-08-24T03:47:49;8.03;;;3.90;;
16998;SDS011;10211;49.476;11.010;2023-08-24T03:50:16;4.97;;;4.40;;
16998;SDS011;10211;49.476;11.010;2023-08-24T03:52:43;7.50;;;4.27;;
16998;SDS011;10211;49.476;11.010;2023-08-24T03:55:10;4.83;;;4.37;;
16998;SDS011;10211;49.476;11.010;2023-08-24T03:57:37;5.23;;;4.27;;
16998;SDS011;10211;49.476;11.010;2023-08-24T04:00:04;5.40;;;4.47;;
16998;SDS011;10211;49.476;11.010;2023-08-24T04:02:37;4.87;;;4.43;;
16998;SDS011;10211;49.476;11.010;2023-08-24T04:05:04;5.30;;;4.80;;
16998;SDS011;10211;49.476;11.010;2023-08-24T04:07:31;6.03;;;4.50;;
16998;SDS011;10211;49.476;11.010;2023-08-24T04:09:58;4.80;;;4.30;;
16998;SDS011;10211;49.476;11.010;2023-08-24T04:12:25;4.73;;;4.17;;
16998;SDS011;10211;49.476;11.010;2023-08-24T04:14:51;7.00;;;4.40;;
16998;SDS011;10211;49.476;11.010;2023-08-24T04:17:18;7.13;;;4.20;;
16998;SDS011;10211;49.476;11.010;2023-08-24T04:19:46;6.17;;;4.93;;
16998;SDS011;10211;49.476;11.010;2023-08-24T04:22:14;6.37;;;5.13;;
16998;SDS011;10211;49.476;11.010;2023-08-24T04:24:40;4.87;;;4.30;;
16998;SDS011;10211;49.476;11.010;2023-08-24T04:27:07;6.23;;;4.70;;
16998;SDS011;10211;49.476;11.010;2023-08-24T04:29:34;6.57;;;4.03;;
16998;SDS011;10211;49.476;11.010;2023-08-24T04:32:01;5.37;;;4.00;;
16998;SDS011;10211;49.476;11.010;2023-08-24T04:34:28;6.20;;;4.40;;
16998;SDS011;10211;49.476;11.010;2023-08-24T04:36:56;7.17;;;4.07;;
16998;SDS011;10211;49.476;11.010;2023-08-24T04:39:22;6.17;;;4.40;;
16998;SDS011;10211;49.476;11.010;2023-08-24T04:41:49;4.57;;;4.13;;
16998;SDS011;10211;49.476;11.010;2023-08-24T04:44:16;5.13;;;4.70;;
16998;SDS011;10211;49.476;11.010;2023-08-24T04:46:43;5.40;;;3.90;;
16998;SDS011;10211;49.476;11.010;2023-08-24T04:49:10;9.17;;;4.67;;
16998;SDS011;10211;49.476;11.010;2023-08-24T04:51:37;7.90;;;4.30;;
16998;SDS011;10211;49.476;11.010;2023-08-24T04:54:05;7.23;;;4.40;;
16998;SDS011;10211;49.476;11.010;2023-08-24T04:56:32;5.47;;;4.30;;
16998;SDS011;10211;49.476;11.010;2023-08-24T04:58:59;7.90;;;4.60;;
16998;SDS011;10211;49.476;11.010;2023-08-24T05:01:28;5.33;;;4.00;;
16998;SDS011;10211;49.476;11.010;2023-08-24T05:03:56;4.37;;;3.97;;
16998;SDS011;10211;49.476;11.010;2023-08-24T05:06:23;4.67;;;4.07;;
16998;SDS011;10211;49.476;11.010;2023-08-24T05:08:50;7.53;;;4.63;;
16998;SDS011;10211;49.476;11.010;2023-08-24T05:11:18;5.83;;;4.27;;
16998;SDS011;10211;49.476;11.010;2023-08-24T05:13:46;5.30;;;4.80;;
16998;SDS011;10211;49.476;11.010;2023-08-24T05:16:13;7.40;;;4.90;;
16998;SDS011;10211;49.476;11.010;2023-08-24T05:18:40;7.13;;;4.57;;
16998;SDS011;10211;49.476;11.010;2023-08-24T05:21:07;8.93;;;5.20;;
16998;SDS011;10211;49.476;11.010;2023-08-24T05:23:34;5.07;;;4.57;;
16998;SDS011;10211;49.476;11.010;2023-08-24T05:26:01;7.93;;;4.43;;
16998;SDS011;10211;49.476;11.010;2023-08-24T05:28:31;7.67;;;4.57;;
16998;SDS011;10211;49.476;11.010;2023-08-24T05:30:58;6.40;;;4.47;;
16998;SDS011;10211;49.476;11.010;2023-08-24T05:33:25;5.47;;;4.70;;
16998;SDS011;10211;49.476;11.010;2023-08-24T05:35:55;4.40;;;4.10;;
16998;SDS011;10211;49.476;11.010;2023-08-24T05:38:22;5.50;;;4.57;;
16998;SDS011;10211;49.476;11.010;2023-08-24T05:40:49;6.80;;;4.50;;
16998;SDS011;10211;49.476;11.010;2023-08-24T05:43:16;4.67;;;4.27;;
16998;SDS011;10211;49.476;11.010;2023-08-24T05:45:44;4.80;;;4.30;;
16998;SDS011;10211;49.476;11.010;2023-08-24T05:48:12;7.43;;;3.80;;
16998;SDS011;10211;49.476;11.010;2023-08-24T05:50:42;4.60;;;4.20;;
16998;SDS011;10211;49.476;11.010;2023-08-24T05:53:09;4.33;;;3.93;;
16998;SDS011;10211;49.476;11.010;2023-08-24T05:55:36;6.60;;;3.97;;
16998;SDS011;10211;49.476;11.010;2023-08-24T05:58:03;8.63;;;4.40;;
16998;SDS011;10211;49.476;11.010;2023-08-24T06:00:30;8.67;;;4.73;;
16998;SDS011;10211;49.476;11.010;2023-08-24T06:02:58;6.70;;;4.83;;
16998;SDS011;10211;49.476;11.010;2023-08-24T06:05:25;7.03;;;4.63;;
16998;SDS011;10211;49.476;11.010;2023-08-24T06:07:52;7.93;;;4.60;;
16998;SDS011;10211;49.476;11.010;2023-08-24T06:10:19;7.80;;;4.80;;
16998;SDS011;10211;49.476;11.010;2023-08-24T06:12:46;11.63;;;5.20;;
16998;SDS011;10211;49.476;11.010;2023-08-24T06:15:13;5.13;;;4.53;;
16998;SDS011;10211;49.476;11.010;2023-08-24T06:17:40;6.03;;;4.70;;
16998;SDS011;10211;49.476;11.010;2023-08-24T06:20:09;7.93;;;4.30;;
16998;SDS011;10211;49.476;11.010;2023-08-24T06:22:37;9.33;;;5.67;;
16998;SDS011;10211;49.476;11.010;2023-08-24T06:25:04;5.10;;;4.70;;
16998;SDS011;10211;49.476;11.010;2023-08-24T06:27:34;8.00;;;4.53;;
16998;SDS011;10211;49.476;11.010;2023-08-24T06:30:01;6.07;;;4.43;;
16998;SDS011;10211;49.476;11.010;2023-08-24T06:32:29;8.07;;;4.07;;
16998;SDS011;10211;49.476;11.010;2023-08-24T06:34:55;3.27;;;2.97;;
16998;SDS011;10211;49.476;11.010;2023-08-24T06:37:24;3.80;;;3.17;;
16998;SDS011;10211;49.476;11.010;2023-08-24T06:39:50;4.53;;;2.97;;
16998;SDS011;10211;49.476;11.010;2023-08-24T06:42:17;6.47;;;3.13;;
16998;SDS011;10211;49.476;11.010;2023-08-24T06:44:44;3.13;;;2.87;;
16998;SDS011;10211;49.476;11.010;2023-08-24T06:47:10;4.70;;;3.13;;
16998;SDS011;10211;49.476;11.010;2023-08-24T06:49:37;5.73;;;3.43;;
16998;SDS011;10211;49.476;11.010;2023-08-24T06:52:04;3.57;;;3.27;;
16998;SDS011;10211;49.476;11.010;2023-08-24T06:54:34;10.63;;;4.53;;
16998;SDS011;10211;49.476;11.010;2023-08-24T06:57:01;5.63;;;3.10;;
16998;SDS011;10211;49.476;11.010;2023-08-24T06:59:28;5.13;;;3.30;;
16998;SDS011;10211;49.476;11.010;2023-08-24T07:01:55;6.93;;;3.57;;
16998;SDS011;10211;49.476;11.010;2023-08-24T07:04:22;4.37;;;3.40;;
16998;SDS011;10211;49.476;11.010;2023-08-24T07:06:49;3.50;;;3.20;;
16998;SDS011;10211;49.476;11.010;2023-08-24T07:09:16;7.10;;;3.37;;
16998;SDS011;10211;49.476;11.010;2023-08-24T07:11:44;7.80;;;3.63;;
16998;SDS011;10211;49.476;11.010;2023-08-24T07:14:11;4.93;;;3.03;;
16998;SDS011;10211;49.476;11.010;2023-08-24T07:16:38;3.30;;;2.93;;
16998;SDS011;10211;49.476;11.010;2023-08-24T07:19:05;2.93;;;2.70;;
16998;SDS011;10211;49.476;11.010;2023-08-24T07:21:31;2.57;;;2.30;;
16998;SDS011;10211;49.476;11.010;2023-08-24T07:23:58;3.37;;;3.07;;
16998;SDS011;10211;49.476;11.010;2023-08-24T07:26:26;3.77;;;3.13;;
16998;SDS011;10211;49.476;11.010;2023-08-24T07:28:56;7.70;;;3.20;;
16998;SDS011;10211;49.476;11.010;2023-08-24T07:31:23;3.50;;;3.20;;
16998;SDS011;10211;49.476;11.010;2023-08-24T07:33:50;4.50;;;3.23;;
16998;SDS011;10211;49.476;11.010;2023-08-24T07:36:17;6.83;;;2.77;;
16998;SDS011;10211;49.476;11.010;2023-08-24T07:38:44;2.77;;;2.53;;
16998;SDS011;10211;49.476;11.010;2023-08-24T07:41:11;2.93;;;2.40;;
16998;SDS011;10211;49.476;11.010;2023-08-24T07:43:38;4.25;;;2.88;;
16998;SDS011;10211;49.476;11.010;2023-08-24T07:46:06;4.43;;;2.87;;
16998;SDS011;10211;49.476;11.010;2023-08-24T07:48:34;8.53;;;2.60;;
16998;SDS011;10211;49.476;11.010;2023-08-24T07:51:01;3.08;;;2.40;;
16998;SDS011;10211;49.476;11.010;2023-08-24T07:53:27;2.45;;;2.25;;
16998;SDS011;10211;49.476;11.010;2023-08-24T07:55:56;6.00;;;2.28;;
16998;SDS011;10211;49.476;11.010;2023-08-24T07:58:23;2.90;;;2.63;;
16998;SDS011;10211;49.476;11.010;2023-08-24T08:00:51;3.20;;;2.70;;
16998;SDS011;10211;49.476;11.010;2023-08-24T08:03:22;3.83;;;2.63;;
16998;SDS011;10211;49.476;11.010;2023-08-24T08:05:49;2.67;;;2.47;;
16998;SDS011;10211;49.476;11.010;2023-08-24T08:08:16;3.15;;;2.40;;
16998;SDS011;10211;49.476;11.010;2023-08-24T08:10:44;2.45;;;2.25;;
16998;SDS011;10211;49.476;11.010;2023-08-24T08:13:12;2.60;;;2.40;;
16998;SDS011;10211;49.476;11.010;2023-08-24T08:15:39;5.60;;;3.30;;
16998;SDS011;10211;49.476;11.010;2023-08-24T08:18:06;6.35;;;3.10;;
16998;SDS011;10211;49.476;11.010;2023-08-24T08:20:34;3.80;;;2.30;;
16998;SDS011;10211;49.476;11.010;2023-08-24T08:23:01;4.20;;;2.60;;
16998;SDS011;10211;49.476;11.010;2023-08-24T08:25:28;5.25;;;2.22;;
16998;SDS011;10211;49.476;11.010;2023-08-24T08:27:55;8.13;;;2.20;;
16998;SDS011;10211;49.476;11.010;2023-08-24T08:30:22;5.43;;;2.92;;
16998;SDS011;10211;49.476;11.010;2023-08-24T08:32:48;10.80;;;2.78;;
16998;SDS011;10211;49.476;11.010;2023-08-24T08:35:16;3.63;;;2.38;;
16998;SDS011;10211;49.476;11.010;2023-08-24T08:37:44;6.68;;;2.30;;
16998;SDS011;10211;49.476;11.010;2023-08-24T08:40:11;4.32;;;2.10;;
16998;SDS011;10211;49.476;11.010;2023-08-24T08:42:38;5.88;;;2.55;;
16998;SDS011;10211;49.476;11.010;2023-08-24T08:45:08;3.55;;;2.15;;
16998;SDS011;10211;49.476;11.010;2023-08-24T08:47:35;12.25;;;2.78;;
16998;SDS011;10211;49.476;11.010;2023-08-24T08:50:02;2.25;;;2.15;;
16998;SDS011;10211;49.476;11.010;2023-08-24T08:52:30;8.45;;;2.15;;
16998;SDS011;10211;49.476;11.010;2023-08-24T08:54:59;2.85;;;2.63;;
16998;SDS011;10211;49.476;11.010;2023-08-24T08:57:26;6.30;;;2.55;;
16998;SDS011;10211;49.476;11.010;2023-08-24T08:59:53;5.05;;;2.30;;
16998;SDS011;10211;49.476;11.010;2023-08-24T09:02:20;2.47;;;2.28;;
16998;SDS011;10211;49.476;11.010;2023-08-24T09:04:49;2.63;;;2.42;;
16998;SDS011;10211;49.476;11.010;2023-08-24T09:07:17;2.65;;;2.30;;
16998;SDS011;10211;49.476;11.010;2023-08-24T09:09:45;3.63;;;2.28;;
16998;SDS011;10211;49.476;11.010;2023-08-24T09:12:13;2.70;;;2.50;;
16998;SDS011;10211;49.476;11.010;2023-08-24T09:14:40;6.15;;;2.75;;
16998;SDS011;10211;49.476;11.010;2023-08-24T09:17:07;4.90;;;2.40;;
16998;SDS011;10211;49.476;11.010;2023-08-24T09:19:34;2.90;;;2.30;;
16998;SDS011;10211;49.476;11.010;2023-08-24T09:22:03;2.47;;;2.28;;
16998;SDS011;10211;49.476;11.010;2023-08-24T09:24:30;2.53;;;2.33;;
16998;SDS011;10211;49.476;11.010;2023-08-24T09:26:58;2.53;;;2.17;;
16998;SDS011;10211;49.476;11.010;2023-08-24T09:29:26;3.65;;;2.20;;
16998;SDS011;10211;49.476;11.010;2023-08-24T09:31:53;6.28;;;2.63;;
16998;SDS011;10211;49.476;11.010;2023-08-24T09:34:20;3.88;;;2.22;;
16998;SDS011;10211;49.476;11.010;2023-08-24T09:36:51;4.50;;;2.70;;
16998;SDS011;10211;49.476;11.010;2023-08-24T09:39:18;1.98;;;1.88;;
16998;SDS011;10211;49.476;11.010;2023-08-24T09:41:46;5.82;;;2.25;;
16998;SDS011;10211;49.476;11.010;2023-08-24T09:44:16;3.17;;;2.33;;
16998;SDS011;10211;49.476;11.010;2023-08-24T09:46:44;2.67;;;1.65;;
16998;SDS011;10211;49.476;11.010;2023-08-24T09:49:11;2.08;;;1.67;;
16998;SDS011;10211;49.476;11.010;2023-08-24T09:51:39;3.17;;;2.10;;
16998;SDS011;10211;49.476;11.010;2023-08-24T09:54:07;4.47;;;1.80;;
16998;SDS011;10211;49.476;11.010;2023-08-24T09:56:35;4.03;;;1.40;;
16998;SDS011;10211;49.476;11.010;2023-08-24T09:59:07;3.55;;;1.60;;
16998;SDS011;10211;49.476;11.010;2023-08-24T10:01:43;1.88;;;1.42;;
16998;SDS011;10211;49.476;11.010;2023-08-24T10:04:12;1.38;;;1.27;;
16998;SDS011;10211;49.476;11.010;2023-08-24T10:06:40;1.50;;;1.35;;
16998;SDS011;10211;49.476;11.010;2023-08-24T10:09:11;3.05;;;1.30;;
16998;SDS011;10211;49.476;11.010;2023-08-24T10:11:48;2.10;;;2.00;;
16998;SDS011;10211;49.476;11.010;2023-08-24T10:14:19;1.63;;;1.52;;
16998;SDS011;10211;49.476;11.010;2023-08-24T10:16:54;1.92;;;1.67;;
16998;SDS011;10211;49.476;11.010;2023-08-24T10:19:22;2.95;;;1.80;;
16998;SDS011;10211;49.476;11.010;2023-08-24T10:21:49;2.20;;;1.55;;
16998;SDS011;10211;49.476;11.010;2023-08-24T10:24:17;4.50;;;1.73;;
16998;SDS011;10211;49.476;11.010;2023-08-24T10:26:46;2.22;;;1.80;;
16998;SDS011;10211;49.476;11.010;2023-08-24T10:29:14;1.95;;;1.58;;
16998;SDS011;10211;49.476;11.010;2023-08-24T10:31:42;3.20;;;1.88;;
16998;SDS011;10211;49.476;11.010;2023-08-24T10:34:11;1.88;;;1.70;;
16998;SDS011;10211;49.476;11.010;2023-08-24T10:36:38;2.30;;;1.70;;
16998;SDS011;10211;49.476;11.010;2023-08-24T10:39:05;5.10;;;1.90;;
16998;SDS011;10211;49.476;11.010;2023-08-24T10:41:48;4.82;;;2.15;;
16998;SDS011;10211;49.476;11.010;2023-08-24T10:44:19;2.58;;;1.63;;
16998;SDS011;10211;49.476;11.010;2023-08-24T10:47:11;2.97;;;2.38;;
16998;SDS011;10211;49.476;11.010;2023-08-24T10:49:42;1.88;;;1.77;;
16998;SDS011;10211;49.476;11.010;2023-08-24T10:52:16;2.20;;;2.10;;
16998;SDS011;10211;49.476;11.010;2023-08-24T10:54:45;2.00;;;1.90;;
16998;SDS011;10211;49.476;11.010;2023-08-24T10:57:20;2.28;;;2.08;;
16998;SDS011;10211;49.476;11.010;2023-08-24T10:59:58;2.05;;;1.70;;
16998;SDS011;10211;49.476;11.010;2023-08-24T11:02:25;2.78;;;1.92;;
16998;SDS011;10211;49.476;11.010;2023-08-24T11:05:15;2.20;;;2.00;;
16998;SDS011;10211;49.476;11.010;2023-08-24T11:07:53;1.90;;;1.80;;
16998;SDS011;10211;49.476;11.010;2023-08-24T11:10:21;2.25;;;1.85;;
16998;SDS011;10211;49.476;11.010;2023-08-24T11:13:06;5.10;;;2.42;;
16998;SDS011;10211;49.476;11.010;2023-08-24T11:15:38;2.15;;;1.95;;
16998;SDS011;10211;49.476;11.010;2023-08-24T11:18:13;2.05;;;1.90;;
16998;SDS011;10211;49.476;11.010;2023-08-24T11:20:43;4.03;;;1.90;;
16998;SDS011;10211;49.476;11.010;2023-08-24T11:23:11;3.03;;;2.05;;
16998;SDS011;10211;49.476;11.010;2023-08-24T11:25:38;5.43;;;2.10;;
16998;SDS011;10211;49.476;11.010;2023-08-24T11:28:06;3.83;;;2.30;;
16998;SDS011;10211;49.476;11.010;2023-08-24T11:30:33;2.22;;;2.13;;
16998;SDS011;10211;49.476;11.010;2023-08-24T11:33:01;2.70;;;2.10;;
16998;SDS011;10211;49.476;11.010;2023-08-24T11:35:28;2.30;;;2.20;;
16998;SDS011;10211;49.476;11.010;2023-08-24T11:37:56;4.45;;;2.28;;
16998;SDS011;10211;49.476;11.010;2023-08-24T11:40:23;2.30;;;2.20;;
16998;SDS011;10211;49.476;11.010;2023-08-24T11:42:53;3.22;;;2.17;;
16998;SDS011;10211;49.476;11.010;2023-08-24T11:45:21;4.75;;;2.00;;
16998;SDS011;10211;49.476;11.010;2023-08-24T11:47:48;5.93;;;2.67;;
16998;SDS011;10211;49.476;11.010;2023-08-24T11:50:16;3.88;;;2.45;;
16998;SDS011;10211;49.476;11.010;2023-08-24T11:52:43;4.28;;;2.38;;
16998;SDS011;10211;49.476;11.010;2023-08-24T11:55:13;29.13;;;2.70;;
16998;SDS011;10211;49.476;11.010;2023-08-24T11:57:41;4.10;;;2.20;;
16998;SDS011;10211;49.476;11.010;2023-08-24T12:00:09;2.35;;;2.15;;
16998;SDS011;10211;49.476;11.010;2023-08-24T12:02:38;2.35;;;1.83;;
16998;SDS011;10211;49.476;11.010;2023-08-24T12:05:06;2.40;;;2.20;;
16998;SDS011;10211;49.476;11.010;2023-08-24T12:07:33;5.90;;;1.90;;
16998;SDS011;10211;49.476;11.010;2023-08-24T12:10:00;4.50;;;2.22;;
16998;SDS011;10211;49.476;11.010;2023-08-24T12:12:29;1.80;;;1.70;;
16998;SDS011;10211;49.476;11.010;2023-08-24T12:14:55;2.20;;;2.03;;
16998;SDS011;10211;49.476;11.010;2023-08-24T12:17:23;3.17;;;1.83;;
16998;SDS011;10211;49.476;11.010;2023-08-24T12:19:57;2.17;;;1.60;;
16998;SDS011;10211;49.476;11.010;2023-08-24T12:22:25;2.42;;;2.10;;
16998;SDS011;10211;49.476;11.010;2023-08-24T12:24:51;2.70;;;1.92;;
16998;SDS011;10211;49.476;11.010;2023-08-24T12:27:19;2.60;;;2.40;;
16998;SDS011;10211;49.476;11.010;2023-08-24T12:29:48;5.18;;;2.90;;
16998;SDS011;10211;49.476;11.010;2023-08-24T12:32:16;3.58;;;2.05;;
16998;SDS011;10211;49.476;11.010;2023-08-24T12:34:45;3.80;;;2.25;;
16998;SDS011;10211;49.476;11.010;2023-08-24T12:37:12;2.20;;;2.03;;
16998;SDS011;10211;49.476;11.010;2023-08-24T12:39:39;2.88;;;1.98;;
16998;SDS011;10211;49.476;11.010;2023-08-24T12:42:06;2.45;;;2.25;;
16998;SDS011;10211;49.476;11.010;2023-08-24T12:44:33;5.95;;;2.10;;
16998;SDS011;10211;49.476;11.010;2023-08-24T12:47:02;3.67;;;1.90;;
16998;SDS011;10211;49.476;11.010;2023-08-24T12:49:30;2.70;;;2.13;;
16998;SDS011;10211;49.476;11.010;2023-08-24T12:51:56;2.25;;;2.05;;
16998;SDS011;10211;49.476;11.010;2023-08-24T12:54:23;1.60;;;1.50;;
16998;SDS011;10211;49.476;11.010;2023-08-24T12:57:00;1.95;;;1.83;;
16998;SDS011;10211;49.476;11.010;2023-08-24T12:59:27;5.25;;;2.28;;
16998;SDS011;10211;49.476;11.010;2023-08-24T13:04:41;2.30;;;2.10;;
16998;SDS011;10211;49.476;11.010;2023-08-24T13:07:08;4.38;;;1.95;;
16998;SDS011;10211;49.476;11.010;2023-08-24T13:09:35;3.35;;;2.20;;
16998;SDS011;10211;49.476;11.010;2023-08-24T13:12:02;2.45;;;1.80;;
16998;SDS011;10211;49.476;11.010;2023-08-24T13:14:29;2.15;;;2.03;;
16998;SDS011;10211;49.476;11.010;2023-08-24T13:16:56;4.70;;;2.25;;
16998;SDS011;10211;49.476;11.010;2023-08-24T13:19:24;2.13;;;1.92;;
16998;SDS011;10211;49.476;11.010;2023-08-24T13:21:51;4.80;;;1.80;;
16998;SDS011;10211;49.476;11.010;2023-08-24T13:24:17;1.98;;;1.85;;
16998;SDS011;10211;49.476;11.010;2023-08-24T13:26:44;2.75;;;2.40;;
16998;SDS011;10211;49.476;11.010;2023-08-24T13:29:11;5.05;;;2.17;;
16998;SDS011;10211;49.476;11.010;2023-08-24T13:31:38;6.03;;;1.95;;
16998;SDS011;10211;49.476;11.010;2023-08-24T13:34:04;3.55;;;2.45;;
16998;SDS011;10211;49.476;11.010;2023-08-24T13:36:34;2.88;;;1.80;;
16998;SDS011;10211;49.476;11.010;2023-08-24T13:39:00;3.28;;;2.22;;
16998;SDS011;10211;49.476;11.010;2023-08-24T13:41:29;1.88;;;1.70;;
16998;SDS011;10211;49.476;11.010;2023-08-24T13:43:56;1.83;;;1.67;;
16998;SDS011;10211;49.476;11.010;2023-08-24T13:46:23;1.77;;;1.67;;
16998;SDS011;10211;49.476;11.010;2023-08-24T13:48:50;9.07;;;2.53;;
16998;SDS011;10211;49.476;11.010;2023-08-24T13:51:17;2.13;;;1.80;;
16998;SDS011;10211;49.476;11.010;2023-08-24T13:53:45;3.15;;;2.10;;
16998;SDS011;10211;49.476;11.010;2023-08-24T13:56:13;2.80;;;2.15;;
16998;SDS011;10211;49.476;11.010;2023-08-24T13:58:40;2.28;;;1.85;;
16998;SDS011;10211;49.476;11.010;2023-08-24T14:01:07;6.80;;;2.20;;
16998;SDS011;10211;49.476;11.010;2023-08-24T14:03:35;2.35;;;1.70;;
16998;SDS011;10211;49.476;11.010;2023-08-24T14:06:02;4.22;;;2.10;;
16998;SDS011;10211;49.476;11.010;2023-08-24T14:08:29;3.42;;;2.10;;
16998;SDS011;10211;49.476;11.010;2023-08-24T14:10:57;4.05;;;2.05;;
16998;SDS011;10211;49.476;11.010;2023-08-24T14:13:24;3.40;;;1.80;;
16998;SDS011;10211;49.476;11.010;2023-08-24T14:15:51;5.28;;;1.88;;
16998;SDS011;10211;49.476;11.010;2023-08-24T14:18:18;4.40;;;2.03;;
16998;SDS011;10211;49.476;11.010;2023-08-24T14:20:45;4.05;;;2.00;;
16998;SDS011;10211;49.476;11.010;2023-08-24T14:23:11;3.38;;;1.73;;
16998;SDS011;10211;49.476;11.010;2023-08-24T14:25:38;3.30;;;2.05;;
16998;SDS011;10211;49.476;11.010;2023-08-24T14:28:07;2.20;;;2.00;;
16998;SDS011;10211;49.476;11.010;2023-08-24T14:30:33;2.20;;;1.90;;
16998;SDS011;10211;49.476;11.010;2023-08-24T14:33:00;4.10;;;1.88;;
16998;SDS011;10211;49.476;11.010;2023-08-24T14:35:27;6.95;;;2.13;;
16998;SDS011;10211;49.476;11.010;2023-08-24T14:37:53;4.18;;;2.30;;
16998;SDS011;10211;49.476;11.010;2023-08-24T14:40:20;6.80;;;2.40;;